Time;durP1;ratioP1;P1;durP2;ratioP2;P2;SDS_P1;SDS_P2;PMS_P1;PMS_P2;Temp;Humidity;BMP_temperature;BMP_pressure;BME280_temperature;BME280_humidity;BME280_pressure;Samples;Min_cycle;Max_cycle;Signal;HPM_P1;HPM_P2
2023/04/03 00:02:03;;;;;;;0.93;0.93;;;;;;;5.47;85.22;103081.78;4978388;28;20050;-87
2023/04/03 00:04:28;;;;;;;1.80;1.10;;;;;;;5.46;85.28;103085.25;4980048;28;20106;-87
2023/04/03 00:06:54;;;;;;;0.60;0.60;;;;;;;5.46;85.21;103081.78;4979537;28;20096;-87
2023/04/03 00:09:19;;;;;;;1.35;0.90;;;;;;;5.45;85.48;103078.28;4980551;28;20062;-87
2023/04/03 00:11:45;;;;;;;1.20;1.10;;;;;;;5.43;85.15;103080.00;4961606;28;20146;-87
2023/04/03 00:14:11;;;;;;;0.77;0.75;;;;;;;5.41;85.26;103081.69;4977808;28;20041;-87
2023/04/03 00:16:36;;;;;;;0.88;0.88;;;;;;;5.43;85.45;103086.91;4978072;28;20058;-87
2023/04/03 00:19:02;;;;;;;1.05;0.80;;;;;;;5.42;85.59;103082.56;4979699;28;20050;-87
2023/04/03 00:21:27;;;;;;;0.90;0.70;;;;;;;5.41;85.75;103083.44;4979080;28;20049;-87
2023/04/03 00:23:53;;;;;;;0.68;0.68;;;;;;;5.40;85.80;103087.72;4978792;28;20026;-87
2023/04/03 00:26:18;;;;;;;1.13;0.80;;;;;;;5.39;85.97;103081.66;4978330;28;20038;-87
2023/04/03 00:28:44;;;;;;;1.45;0.75;;;;;;;5.37;85.97;103088.56;4978989;28;20050;-87
2023/04/03 00:31:09;;;;;;;0.80;0.70;;;;;;;5.37;85.96;103085.09;4977759;28;20077;-87
2023/04/03 00:33:35;;;;;;;1.63;0.88;;;;;;;5.37;86.26;103087.69;4977903;28;20090;-87
2023/04/03 00:36:06;;;;;;;0.77;0.77;;;;;;;5.34;86.14;103085.03;4977799;28;20085;-87
2023/04/03 00:38:31;;;;;;;2.08;1.15;;;;;;;5.33;85.99;103089.38;4977624;28;20317;-87
2023/04/03 00:40:57;;;;;;;0.80;0.68;;;;;;;5.32;86.11;103094.53;4978950;28;20089;-87
2023/04/03 00:43:24;;;;;;;0.73;0.73;;;;;;;5.31;86.24;103085.88;4978709;28;20066;-87
2023/04/03 00:45:55;;;;;;;1.27;0.90;;;;;;;5.30;86.22;103088.44;4976419;28;20101;-87
2023/04/03 00:48:23;;;;;;;1.25;0.77;;;;;;;5.28;86.15;103091.00;4960925;28;20049;-87
2023/04/03 00:50:48;;;;;;;1.15;1.00;;;;;;;5.27;86.13;103085.78;4978438;28;20097;-87
2023/04/03 00:53:19;;;;;;;1.60;0.75;;;;;;;5.24;86.27;103093.50;4978515;28;20093;-87
2023/04/03 00:55:47;;;;;;;2.40;1.00;;;;;;;5.24;86.37;103088.31;4979369;28;20207;-87
2023/04/03 00:58:17;;;;;;;0.80;0.80;;;;;;;5.24;86.59;103090.91;4976991;28;20022;-87
2023/04/03 01:00:46;;;;;;;0.80;0.80;;;;;;;5.24;86.71;103088.31;4976487;28;20350;-87
2023/04/03 01:03:11;;;;;;;0.77;0.77;;;;;;;5.22;86.77;103085.72;4978439;28;20041;-87
2023/04/03 01:05:37;;;;;;;1.30;1.05;;;;;;;5.22;86.95;103093.50;4976849;28;20050;-87
2023/04/03 01:08:03;;;;;;;1.13;0.85;;;;;;;5.23;87.02;103096.97;4978334;28;20035;-87
2023/04/03 01:10:28;;;;;;;0.80;0.80;;;;;;;5.21;87.04;103098.66;4961505;28;20364;-87
2023/04/03 01:12:54;;;;;;;0.65;0.65;;;;;;;5.20;87.30;103105.56;4976666;28;20081;-87
2023/04/03 01:15:26;;;;;;;1.00;0.90;;;;;;;5.19;87.41;103102.09;4977566;28;20038;-87
2023/04/03 01:17:58;;;;;;;0.88;0.75;;;;;;;5.19;87.51;103096.91;4977657;28;20047;-86
2023/04/03 01:20:32;;;;;;;0.90;0.90;;;;;;;5.18;87.62;103108.16;4978107;28;20377;-87
2023/04/03 01:23:10;;;;;;;0.80;0.80;;;;;;;5.17;87.58;103106.41;4976492;28;20035;-87
2023/04/03 01:25:51;;;;;;;1.35;0.90;;;;;;;5.17;87.47;103102.94;4973858;28;20034;-87
2023/04/03 01:28:26;;;;;;;1.52;0.80;;;;;;;5.15;87.75;103099.44;4977726;28;20125;-87
2023/04/03 01:31:17;;;;;;;1.95;0.77;;;;;;;5.13;87.82;103104.59;4977812;28;20062;-87
2023/04/03 01:33:43;;;;;;;0.80;0.70;;;;;;;5.12;87.80;103105.44;4975366;28;20034;-87
2023/04/03 01:36:10;;;;;;;1.33;0.98;;;;;;;5.10;87.75;103103.66;4976860;28;20258;-87
2023/04/03 01:38:35;;;;;;;0.73;0.70;;;;;;;5.09;87.80;103112.28;4977467;28;20067;-87
2023/04/03 01:41:01;;;;;;;0.88;0.82;;;;;;;5.06;87.83;103107.94;4976784;28;20051;-86
2023/04/03 01:43:26;;;;;;;1.48;1.00;;;;;;;5.03;87.47;103102.66;4960605;28;20041;-87
2023/04/03 01:45:54;;;;;;;0.70;0.70;;;;;;;5.00;87.47;103103.50;4960007;28;20082;-87
2023/04/03 01:48:19;;;;;;;1.10;1.00;;;;;;;4.99;87.61;103101.75;4975891;28;20109;-87
2023/04/03 01:50:45;;;;;;;1.20;1.10;;;;;;;4.97;87.63;103105.16;4977484;28;20101;-87
2023/04/03 01:53:11;;;;;;;1.30;0.70;;;;;;;4.96;87.74;103103.41;4976335;28;20042;-87
2023/04/03 01:55:36;;;;;;;1.17;1.00;;;;;;;4.93;87.78;103103.34;4978105;28;20051;-87
2023/04/03 01:58:02;;;;;;;1.05;0.90;;;;;;;4.92;87.84;103109.41;4977685;28;20042;-87
2023/04/03 02:00:27;;;;;;;0.82;0.82;;;;;;;4.91;87.71;103107.63;4977458;28;20046;-87
2023/04/03 02:02:53;;;;;;;0.93;0.75;;;;;;;4.90;87.74;103105.91;4959227;28;20030;-87
2023/04/03 02:05:18;;;;;;;1.00;0.90;;;;;;;4.87;88.01;103100.63;4975185;28;20062;-87
2023/04/03 02:07:44;;;;;;;0.98;0.90;;;;;;;4.86;87.99;103112.75;4976317;28;20050;-86
2023/04/03 02:10:10;;;;;;;0.80;0.80;;;;;;;4.86;88.12;103114.44;4977340;28;20070;-87
2023/04/03 02:12:35;;;;;;;1.20;1.10;;;;;;;4.85;88.13;103115.31;4976454;28;20069;-86
2023/04/03 02:15:00;;;;;;;2.05;1.00;;;;;;;4.83;88.13;103119.59;4977069;28;20215;-87
2023/04/03 02:17:26;;;;;;;1.10;0.98;;;;;;;4.80;88.14;103123.91;4959721;28;20274;-87
2023/04/03 02:19:51;;;;;;;1.60;0.77;;;;;;;4.79;88.19;103124.72;4975892;28;20062;-87
2023/04/03 02:22:17;;;;;;;1.00;0.90;;;;;;;4.77;88.14;103131.59;4977936;28;20242;-87
2023/04/03 02:24:43;;;;;;;1.00;0.98;;;;;;;4.76;88.31;103123.78;4975808;28;20277;-87
2023/04/03 02:27:08;;;;;;;0.82;0.82;;;;;;;4.74;88.24;103121.16;4959265;28;20109;-87
2023/04/03 02:29:33;;;;;;;1.02;0.80;;;;;;;4.74;88.36;103133.25;4976626;28;20066;-87
2023/04/03 02:31:59;;;;;;;1.05;0.95;;;;;;;4.72;88.39;103129.78;4959868;28;20045;-87
2023/04/03 02:34:24;;;;;;;1.77;0.90;;;;;;;4.70;88.59;103129.72;4975202;28;20030;-87
2023/04/03 02:36:50;;;;;;;1.00;1.00;;;;;;;4.70;88.46;103137.53;4975908;28;20042;-87
2023/04/03 02:39:16;;;;;;;1.23;1.13;;;;;;;4.68;88.52;103128.81;4975215;28;20034;-87
2023/04/03 02:41:41;;;;;;;0.98;0.88;;;;;;;4.66;88.54;103132.22;4974821;28;20097;-87
2023/04/03 02:44:09;;;;;;;2.13;1.00;;;;;;;4.65;88.61;103131.34;4975159;28;20097;-87
2023/04/03 02:46:34;;;;;;;0.90;0.80;;;;;;;4.64;88.59;103137.41;4975512;28;20125;-87
2023/04/03 02:49:00;;;;;;;0.88;0.88;;;;;;;4.63;88.65;103125.25;4975987;28;20333;-87
2023/04/03 02:51:25;;;;;;;0.88;0.88;;;;;;;4.63;88.82;103139.97;4974912;28;20072;-87
2023/04/03 02:53:50;;;;;;;1.20;0.98;;;;;;;4.60;88.89;103133.88;4958400;28;20386;-87
2023/04/03 02:56:17;;;;;;;1.23;1.00;;;;;;;4.58;88.88;103135.56;4976606;28;20117;-86
2023/04/03 02:58:43;;;;;;;1.60;1.00;;;;;;;4.57;88.88;103143.31;4974596;28;20066;-87
2023/04/03 03:01:09;;;;;;;1.25;0.90;;;;;;;4.56;88.79;103133.75;4976087;28;20065;-87
2023/04/03 03:03:35;;;;;;;0.80;0.80;;;;;;;4.55;88.84;103134.63;4975663;28;20070;-87
2023/04/03 03:06:05;;;;;;;2.25;1.27;;;;;;;4.53;88.99;103132.00;4976479;28;20034;-87
2023/04/03 03:08:30;;;;;;;0.90;0.90;;;;;;;4.53;88.92;103134.59;4974805;28;20035;-87
2023/04/03 03:10:56;;;;;;;1.15;1.05;;;;;;;4.52;89.03;103135.41;4975914;28;20265;-87
2023/04/03 03:13:21;;;;;;;0.82;0.82;;;;;;;4.51;89.01;103138.88;4974988;28;20062;-87
2023/04/03 03:15:47;;;;;;;1.10;1.00;;;;;;;4.52;89.19;103138.00;4974490;28;20045;-87
2023/04/03 03:18:12;;;;;;;2.05;1.00;;;;;;;4.50;89.24;103138.84;4974886;28;20109;-88
2023/04/03 03:20:37;;;;;;;1.05;0.95;;;;;;;4.48;89.27;103149.16;4975438;28;20035;-87
2023/04/03 03:23:03;;;;;;;1.45;0.95;;;;;;;4.48;89.35;103137.94;4974897;28;20065;-87
2023/04/03 03:25:28;;;;;;;1.45;1.15;;;;;;;4.47;89.34;103142.22;4974294;28;20038;-87
2023/04/03 03:27:54;;;;;;;1.20;1.10;;;;;;;4.46;89.50;103139.59;4958483;28;20034;-87
2023/04/03 03:30:19;;;;;;;0.90;0.80;;;;;;;4.46;89.68;103139.59;4975231;28;20042;-87
2023/04/03 03:32:45;;;;;;;0.95;0.95;;;;;;;4.45;89.48;103153.41;4959102;28;20290;-87
2023/04/03 03:35:10;;;;;;;1.77;1.10;;;;;;;4.41;89.51;103148.16;4975957;28;20039;-87
2023/04/03 03:37:36;;;;;;;1.13;1.05;;;;;;;4.43;89.49;103145.59;4975706;28;20114;-87
2023/04/03 03:40:01;;;;;;;0.93;0.93;;;;;;;4.41;89.59;103158.53;4976244;28;20038;-87
2023/04/03 03:42:26;;;;;;;1.80;0.90;;;;;;;4.38;89.54;103158.50;4975724;28;20062;-87
2023/04/03 03:44:52;;;;;;;1.45;0.85;;;;;;;4.36;89.47;103156.69;4974216;28;20034;-87
2023/04/03 03:47:17;;;;;;;0.80;0.80;;;;;;;4.34;89.20;103156.63;4974371;28;20261;-87
2023/04/03 03:49:43;;;;;;;1.10;0.85;;;;;;;4.32;89.14;103160.06;4973926;28;20364;-86
2023/04/03 03:52:10;;;;;;;1.33;1.20;;;;;;;4.29;88.91;103157.38;4974473;28;20054;-86
2023/04/03 03:54:36;;;;;;;1.10;1.05;;;;;;;4.25;88.73;103165.94;4973999;28;20035;-87
2023/04/03 03:57:02;;;;;;;1.52;1.10;;;;;;;4.22;88.56;103161.53;4975941;28;20279;-87
2023/04/03 03:59:27;;;;;;;0.90;0.75;;;;;;;4.18;88.58;103163.22;4960278;28;20034;-86
2023/04/03 04:01:52;;;;;;;0.80;0.80;;;;;;;4.16;88.54;103166.59;4977226;28;20302;-86
2023/04/03 04:04:18;;;;;;;1.23;1.15;;;;;;;4.13;88.40;103162.22;4978575;28;20329;-87
2023/04/03 04:06:43;;;;;;;1.55;1.10;;;;;;;4.11;88.39;103161.31;4976916;28;20038;-87
2023/04/03 04:09:09;;;;;;;1.35;1.00;;;;;;;4.08;88.38;103166.44;4977656;28;20062;-87
2023/04/03 04:11:34;;;;;;;1.05;0.95;;;;;;;4.06;88.46;103162.03;4976762;28;20322;-87
2023/04/03 04:14:00;;;;;;;1.27;1.00;;;;;;;4.04;88.61;103149.06;4977888;28;20137;-87
2023/04/03 04:16:25;;;;;;;1.15;1.05;;;;;;;4.02;88.52;103154.19;4979103;28;20106;-87
2023/04/03 04:18:51;;;;;;;1.05;1.05;;;;;;;4.01;88.59;103157.63;4978668;28;20054;-87
2023/04/03 04:21:16;;;;;;;1.30;1.15;;;;;;;3.99;88.61;103166.22;4978549;28;20035;-87
2023/04/03 04:23:41;;;;;;;1.20;1.10;;;;;;;3.99;88.49;103166.22;4978686;28;20053;-87
2023/04/03 04:26:07;;;;;;;1.40;1.30;;;;;;;3.97;88.70;103163.59;4977424;28;20047;-87
2023/04/03 04:28:32;;;;;;;1.20;1.10;;;;;;;3.96;88.75;103172.19;4976967;28;20047;-87
2023/04/03 04:30:58;;;;;;;1.40;1.13;;;;;;;3.93;88.64;103164.34;4978090;28;20050;-87
2023/04/03 04:33:23;;;;;;;0.95;0.95;;;;;;;3.91;nan;103166.03;4979482;28;20049;-87
2023/04/03 04:35:48;;;;;;;1.52;1.27;;;;;;;3.90;88.60;103166.00;4976682;28;20043;-87
2023/04/03 04:38:14;;;;;;;1.30;1.20;;;;;;;3.89;88.69;103174.59;4978396;28;20043;-87
2023/04/03 04:40:40;;;;;;;1.77;0.85;;;;;;;3.88;88.67;103178.91;4960565;28;20030;-86
2023/04/03 04:43:05;;;;;;;0.95;0.95;;;;;;;3.85;88.55;103174.50;4978917;28;20061;-87
2023/04/03 04:45:31;;;;;;;0.88;0.88;;;;;;;3.83;88.57;103183.97;4976872;28;20062;-87
2023/04/03 04:47:56;;;;;;;1.20;1.10;;;;;;;3.81;88.53;103180.47;4978800;28;20424;-87
2023/04/03 04:50:22;;;;;;;1.20;1.10;;;;;;;3.79;88.25;103186.47;4977021;28;20046;-86
2023/04/03 04:52:47;;;;;;;1.42;1.10;;;;;;;3.77;88.55;103182.97;4960357;28;20031;-87
2023/04/03 04:55:13;;;;;;;2.38;1.30;;;;;;;3.75;88.66;103190.69;4978583;28;20261;-87
2023/04/03 04:57:38;;;;;;;1.40;1.17;;;;;;;3.73;88.46;103194.97;4976600;28;20059;-86
2023/04/03 05:00:04;;;;;;;1.20;1.10;;;;;;;3.71;88.43;103183.69;4977176;28;20333;-87
2023/04/03 05:02:30;;;;;;;3.05;1.30;;;;;;;3.69;88.36;103187.94;4977688;28;20114;-87
2023/04/03 05:04:56;;;;;;;1.40;1.23;;;;;;;3.68;88.45;103190.50;4976586;28;20023;-87
2023/04/03 05:07:22;;;;;;;1.27;1.17;;;;;;;3.66;88.57;103195.66;4961072;28;20081;-87
2023/04/03 05:09:47;;;;;;;1.75;0.98;;;;;;;3.66;88.66;103193.06;4976668;28;20199;-86
2023/04/03 05:12:12;;;;;;;1.48;1.38;;;;;;;3.64;88.94;103193.00;4978220;28;20058;-86
2023/04/03 05:14:38;;;;;;;1.67;1.30;;;;;;;3.62;88.76;103189.50;4959880;28;20042;-87
2023/04/03 05:17:03;;;;;;;1.13;1.05;;;;;;;3.61;89.00;103192.91;4978117;28;20053;-87
2023/04/03 05:19:29;;;;;;;1.42;1.23;;;;;;;3.61;89.13;103194.66;4976099;28;20353;-87
2023/04/03 05:21:54;;;;;;;1.63;1.30;;;;;;;3.61;89.23;103199.81;4977384;28;20365;-87
2023/04/03 05:24:20;;;;;;;1.80;1.38;;;;;;;3.59;89.35;103193.72;4960555;28;20166;-87
2023/04/03 05:26:45;;;;;;;1.70;1.60;;;;;;;3.58;89.36;103198.00;4976348;28;20125;-86
2023/04/03 05:29:11;;;;;;;1.27;1.17;;;;;;;3.58;89.62;103203.19;4976363;28;20109;-87
2023/04/03 05:31:36;;;;;;;1.63;1.52;;;;;;;3.58;89.36;103202.34;4960860;28;20362;-86
2023/04/03 05:34:02;;;;;;;1.42;1.33;;;;;;;3.55;89.52;103202.28;4975973;28;20110;-87
2023/04/03 05:36:28;;;;;;;1.75;1.40;;;;;;;3.56;89.62;103211.78;4959942;28;20508;-87
2023/04/03 05:38:56;;;;;;;3.20;1.40;;;;;;;3.56;89.70;103204.00;4977422;28;20068;-87
2023/04/03 05:41:21;;;;;;;1.52;1.27;;;;;;;3.54;89.92;103211.72;4975977;28;20050;-86
2023/04/03 05:43:47;;;;;;;1.90;1.50;;;;;;;3.53;89.95;103209.09;4976468;28;20045;-87
2023/04/03 05:46:14;;;;;;;1.52;1.42;;;;;;;3.52;89.98;103209.94;4960177;28;20038;-86
2023/04/03 05:48:39;;;;;;;2.03;1.48;;;;;;;3.52;90.00;103208.22;4977058;28;20203;-86
2023/04/03 05:51:06;;;;;;;1.98;1.83;;;;;;;3.51;90.10;103200.41;4977269;28;20294;-87
2023/04/03 05:53:36;;;;;;;2.03;1.50;;;;;;;3.50;90.18;103202.13;4980747;28;20050;-86
2023/04/03 05:56:02;;;;;;;1.75;1.65;;;;;;;3.49;90.25;103208.13;4978634;28;20033;-87
2023/04/03 05:58:28;;;;;;;1.73;1.50;;;;;;;3.51;90.20;103210.78;4979251;28;20042;-86
2023/04/03 06:00:53;;;;;;;2.00;1.50;;;;;;;3.52;90.44;103218.59;4960152;28;20159;-87
2023/04/03 06:03:22;;;;;;;1.90;1.60;;;;;;;3.52;90.46;103215.13;4979008;28;20050;-86
2023/04/03 06:05:47;;;;;;;1.42;1.33;;;;;;;3.51;90.47;103218.56;4978607;28;20034;-87
2023/04/03 06:08:14;;;;;;;2.15;1.52;;;;;;;3.48;90.64;103219.34;4961288;28;20503;-87
2023/04/03 06:10:40;;;;;;;2.67;1.80;;;;;;;3.49;90.62;103215.03;4961621;28;20034;-86
2023/04/03 06:13:06;;;;;;;2.38;2.17;;;;;;;3.51;90.69;103224.63;4976830;28;20325;-87
2023/04/03 06:15:34;;;;;;;2.97;1.75;;;;;;;3.51;90.79;103229.81;4976238;28;20059;-87
2023/04/03 06:18:00;;;;;;;1.65;1.55;;;;;;;3.53;91.06;103230.72;4961080;28;20073;-86
2023/04/03 06:20:25;;;;;;;2.60;1.67;;;;;;;3.55;91.19;103234.22;4957806;28;20038;-87
2023/04/03 06:22:52;;;;;;;2.22;1.80;;;;;;;3.54;91.33;103229.00;4960324;28;20038;-87
2023/04/03 06:25:18;;;;;;;3.03;1.85;;;;;;;3.55;91.25;103242.00;4945486;28;20054;-87
2023/04/03 06:27:47;;;;;;;3.40;1.90;;;;;;;3.58;91.40;103239.47;4957610;28;20222;-87
2023/04/03 06:30:13;;;;;;;2.42;1.70;;;;;;;3.58;91.61;103242.06;4959253;28;20074;-87
2023/04/03 06:32:42;;;;;;;1.70;1.60;;;;;;;3.59;91.43;103238.66;4957309;29;20047;-86
2023/04/03 06:35:08;;;;;;;2.60;1.85;;;;;;;3.62;91.66;103240.44;4961315;28;20034;-87
2023/04/03 06:37:35;;;;;;;2.03;1.83;;;;;;;3.62;91.89;103243.94;4961335;28;20249;-86
2023/04/03 06:40:01;;;;;;;1.73;1.63;;;;;;;3.64;92.02;103241.38;4954143;28;20035;-87
2023/04/03 06:42:26;;;;;;;2.90;2.00;;;;;;;3.65;91.99;103240.53;4961999;28;20218;-86
2023/04/03 06:44:52;;;;;;;2.35;1.60;;;;;;;3.64;92.17;103242.25;4976133;28;20345;-87
2023/04/03 06:47:17;;;;;;;5.50;1.92;;;;;;;3.67;92.13;103240.56;4977711;28;20241;-87
2023/04/03 06:49:45;;;;;;;1.60;1.50;;;;;;;3.67;92.26;103237.97;4960421;28;20104;-87
2023/04/03 06:52:11;;;;;;;2.75;1.60;;;;;;;3.65;92.14;103232.75;4968154;28;20041;-87
2023/04/03 06:54:37;;;;;;;3.28;1.70;;;;;;;3.67;92.26;103235.38;4962806;28;20037;-86
2023/04/03 06:57:03;;;;;;;1.73;1.50;;;;;;;3.71;92.57;103250.19;4977210;28;20058;-87
2023/04/03 06:59:29;;;;;;;3.10;1.70;;;;;;;3.71;92.41;103250.19;4944710;28;20034;-86
2023/04/03 07:01:54;;;;;;;4.43;1.80;;;;;;;3.72;92.19;103244.16;4962853;28;20383;-87
2023/04/03 07:04:20;;;;;;;2.50;2.17;;;;;;;3.70;92.28;103246.72;4959432;28;20038;-87
2023/04/03 07:06:47;;;;;;;2.22;1.75;;;;;;;3.70;92.03;103251.91;4959388;28;20027;-87
2023/04/03 07:09:14;;;;;;;2.55;1.73;;;;;;;3.70;91.78;103251.91;4961211;28;20041;-87
2023/04/03 07:11:40;;;;;;;2.47;1.60;;;;;;;3.69;91.64;103257.03;4976215;28;20034;-87
2023/04/03 07:14:07;;;;;;;2.90;1.85;;;;;;;3.69;91.43;103268.28;4977051;28;20043;-87
2023/04/03 07:16:33;;;;;;;4.93;1.88;;;;;;;3.70;91.52;103256.22;4960049;28;20042;-86
2023/04/03 07:19:01;;;;;;;1.95;1.50;;;;;;;3.73;91.78;103269.22;4958412;28;20037;-87
2023/04/03 07:21:27;;;;;;;2.28;1.85;;;;;;;3.74;91.33;103271.00;4976696;28;20030;-87
2023/04/03 07:23:53;;;;;;;3.05;1.55;;;;;;;3.74;91.26;103276.19;4958725;28;20078;-87
2023/04/03 07:26:25;;;;;;;2.50;1.50;;;;;;;3.74;91.37;103268.41;4974576;28;20388;-87
2023/04/03 07:28:59;;;;;;;2.88;1.50;;;;;;;3.75;91.26;103268.44;4975925;28;20369;-87
2023/04/03 07:31:25;;;;;;;3.05;1.75;;;;;;;3.74;90.16;103278.78;4964757;28;20248;-87
2023/04/03 07:33:51;;;;;;;1.83;1.70;;;;;;;3.76;90.35;103272.78;4977103;28;20035;-87
2023/04/03 07:36:20;;;;;;;4.82;2.10;;;;;;;3.75;90.14;103275.38;4965232;28;20065;-86
2023/04/03 07:38:46;;;;;;;4.05;1.77;;;;;;;3.78;90.30;103285.78;4979151;28;20307;-86
2023/04/03 07:41:17;;;;;;;2.45;1.50;;;;;;;3.78;90.55;103276.31;4949074;28;20470;-87
2023/04/03 07:43:43;;;;;;;3.30;1.95;;;;;;;3.82;90.45;103285.94;4977372;28;20093;-86
2023/04/03 07:46:09;;;;;;;2.90;1.70;;;;;;;3.79;89.83;103279.78;4981179;28;20042;-87
2023/04/03 07:48:35;;;;;;;2.05;1.42;;;;;;;3.80;89.80;103285.00;4977473;28;20065;-86
2023/04/03 07:51:04;;;;;;;1.92;1.73;;;;;;;3.83;90.00;103292.84;4963529;28;20045;-86
2023/04/03 07:53:34;;;;;;;;;;;;;;;3.83;89.97;103290.25;4978444;28;20101;-87
2023/04/03 07:56:01;;;;;;;2.95;1.65;;;;;;;3.83;90.02;103290.25;4963478;28;19976;-86
2023/04/03 07:58:26;;;;;;;1.63;1.35;;;;;;;3.89;89.92;103291.25;4960374;28;20101;-87
2023/04/03 08:00:52;;;;;;;2.22;1.63;;;;;;;3.89;90.10;103294.72;4976012;28;20042;-86
2023/04/03 08:03:18;;;;;;;2.38;1.75;;;;;;;3.92;90.03;103293.94;4979456;28;20089;-87
2023/04/03 08:05:46;;;;;;;4.13;1.77;;;;;;;3.94;90.13;103293.13;4948815;28;20065;-87
2023/04/03 08:08:15;;;;;;;4.13;1.70;;;;;;;3.95;89.14;103300.09;4980654;28;20039;-87
2023/04/03 08:10:42;;;;;;;4.35;2.08;;;;;;;3.94;88.63;103295.72;4979021;28;20334;-87
2023/04/03 08:13:08;;;;;;;5.80;2.00;;;;;;;3.96;nan;103300.97;4964634;28;20050;-86
2023/04/03 08:15:34;;;;;;;3.95;2.05;;;;;;;3.99;88.83;103306.22;4990342;28;20035;-87
2023/04/03 08:18:00;;;;;;;3.45;1.98;;;;;;;4.00;88.23;103306.28;4962608;28;20034;-86
2023/04/03 08:20:26;;;;;;;4.18;2.10;;;;;;;4.00;87.16;103310.56;4984164;28;20049;-86
2023/04/03 08:22:52;;;;;;;1.98;1.52;;;;;;;4.02;86.75;103312.38;4981808;28;20445;-87
2023/04/03 08:25:18;;;;;;;6.18;2.10;;;;;;;4.04;86.93;103315.00;4979849;28;20042;-86
2023/04/03 08:27:44;;;;;;;2.50;1.50;;;;;;;4.07;87.18;103314.22;4978452;28;20105;-86
2023/04/03 08:30:11;;;;;;;6.30;1.88;;;;;;;4.09;86.95;103317.72;4980077;28;20042;-87
2023/04/03 08:32:36;;;;;;;4.53;1.40;;;;;;;4.07;85.03;103315.06;4979125;28;20503;-86
2023/04/03 08:35:03;;;;;;;3.25;1.60;;;;;;;4.08;85.31;103314.25;4980474;28;20241;-86
2023/04/03 08:37:29;;;;;;;3.35;1.67;;;;;;;4.08;84.26;103314.25;4978697;28;20042;-87
2023/04/03 08:39:54;;;;;;;3.45;1.60;;;;;;;4.11;85.00;103314.34;4962925;28;20210;-86
2023/04/03 08:42:56;;;;;;;6.72;1.83;;;;;;;4.13;84.65;103314.34;4978928;28;20030;-86
2023/04/03 08:45:34;;;;;;;3.25;1.55;;;;;;;4.15;83.35;103312.69;4964110;28;20274;-87
2023/04/03 08:48:11;;;;;;;2.35;1.38;;;;;;;4.16;83.48;103320.50;4960798;28;20229;-87
2023/04/03 08:50:41;;;;;;;3.42;1.50;;;;;;;4.17;83.46;103309.28;4976208;28;20042;-86
2023/04/03 08:53:13;;;;;;;4.13;1.50;;;;;;;4.20;83.64;103311.97;4980225;28;20105;-87
2023/04/03 08:55:49;;;;;;;3.25;1.98;;;;;;;4.21;82.79;103313.72;4976602;28;20133;-86
2023/04/03 08:58:24;;;;;;;4.13;1.65;;;;;;;4.22;81.73;103307.69;4978741;28;20385;-86
2023/04/03 09:01:21;;;;;;;4.35;1.83;;;;;;;4.25;79.92;103314.66;4977900;28;20161;-87
2023/04/03 09:03:47;;;;;;;1.83;1.13;;;;;;;4.28;80.54;103316.47;4979462;28;20043;-87
2023/04/03 09:06:25;;;;;;;3.53;1.42;;;;;;;4.30;80.41;103307.88;4980399;28;20030;-86
2023/04/03 09:09:26;;;;;;;4.85;1.58;;;;;;;4.33;79.32;103307.06;4979962;28;20034;-87
2023/04/03 09:12:11;;;;;;;5.18;1.52;;;;;;;4.36;79.14;103313.22;4966645;28;20059;-86
2023/04/03 09:14:43;;;;;;;1.60;1.40;;;;;;;4.38;77.01;103308.06;4976447;28;20157;-87
2023/04/03 09:17:30;;;;;;;1.42;1.23;;;;;;;4.41;76.54;103315.94;4968668;28;20074;-86
2023/04/03 09:20:23;;;;;;;2.65;1.13;;;;;;;4.43;75.94;103299.56;4959858;28;20062;-87
2023/04/03 09:22:50;;;;;;;2.30;1.27;;;;;;;4.47;76.00;103305.69;4975886;28;20286;-86
2023/04/03 09:25:18;;;;;;;4.28;1.13;;;;;;;4.51;75.13;103306.66;4968782;28;20037;-87
2023/04/03 09:27:44;;;;;;;1.80;1.07;;;;;;;4.56;74.93;103310.25;4968956;28;20051;-86
2023/04/03 09:30:18;;;;;;;2.42;1.05;;;;;;;4.62;73.29;103313.00;4971783;28;20115;-87
2023/04/03 09:32:49;;;;;;;2.22;1.10;;;;;;;4.68;73.19;103312.25;4970207;28;20038;-86
2023/04/03 09:35:40;;;;;;;2.28;1.52;;;;;;;4.70;72.90;103313.16;4977690;28;20457;-86
2023/04/03 09:38:11;;;;;;;2.28;1.08;;;;;;;4.73;72.66;103308.94;4979370;28;20039;-86
2023/04/03 09:40:49;;;;;;;3.03;1.63;;;;;;;4.78;70.55;103301.22;4976319;28;20326;-86
2023/04/03 09:43:17;;;;;;;9.57;1.35;;;;;;;4.81;69.59;103296.13;4968731;28;20041;-86
2023/04/03 09:45:44;;;;;;;1.10;0.73;;;;;;;4.84;70.02;103292.69;4969180;28;20043;-87
2023/04/03 09:48:12;;;;;;;5.43;1.23;;;;;;;4.89;69.67;103286.75;4979659;28;20034;-86
2023/04/03 09:50:59;;;;;;;4.10;1.10;;;;;;;4.92;69.68;103281.66;4979600;28;20026;-87
2023/04/03 09:53:33;;;;;;;2.00;0.93;;;;;;;4.96;68.45;103282.59;4977141;28;20054;-87
2023/04/03 09:56:00;;;;;;;1.60;0.88;;;;;;;4.98;67.50;103281.78;4960520;28;20278;-86
2023/04/03 09:58:40;;;;;;;3.17;1.10;;;;;;;5.00;66.43;103271.41;4958450;29;20058;-86
2023/04/03 10:01:06;;;;;;;1.42;0.90;;;;;;;5.04;66.87;103275.84;4959487;29;20265;-86
2023/04/03 10:03:35;;;;;;;3.03;0.88;;;;;;;5.08;67.24;103275.06;4960370;28;20038;-87
2023/04/03 10:06:02;;;;;;;1.23;0.90;;;;;;;5.13;67.06;103273.44;4975175;28;20051;-86
2023/04/03 10:08:33;;;;;;;1.92;1.10;;;;;;;5.17;67.73;103271.78;4958865;29;20042;-86
2023/04/03 10:11:18;;;;;;;2.95;0.73;;;;;;;5.21;67.50;103267.53;4959298;29;20034;-86
2023/04/03 10:13:59;;;;;;;1.75;0.70;;;;;;;5.27;66.32;103270.25;4959899;28;20120;-87
2023/04/03 10:16:37;;;;;;;1.23;1.02;;;;;;;5.30;67.60;103265.13;4960392;28;20050;-86
2023/04/03 10:19:20;;;;;;;6.07;0.95;;;;;;;5.33;65.96;103262.56;4959075;29;20045;-86
2023/04/03 10:22:20;;;;;;;1.23;0.88;;;;;;;5.36;66.65;103260.03;4958774;29;20380;-86
2023/04/03 10:25:01;;;;;;;2.45;0.68;;;;;;;5.38;66.28;103250.53;4952663;29;20093;-86
2023/04/03 10:27:35;;;;;;;2.33;0.82;;;;;;;5.37;66.40;103252.28;4958945;29;20034;-86
2023/04/03 10:30:23;;;;;;;1.08;0.80;;;;;;;5.39;65.20;103250.56;4962359;28;20279;-86
2023/04/03 10:32:49;;;;;;;2.60;0.73;;;;;;;5.42;65.63;103249.78;4972901;28;20081;-86
2023/04/03 10:35:32;;;;;;;2.05;0.70;;;;;;;5.43;65.43;103248.91;4974863;28;20106;-86
2023/04/03 10:38:21;;;;;;;1.45;0.80;;;;;;;5.46;64.91;103246.38;4960637;28;20035;-86
2023/04/03 10:41:04;;;;;;;1.40;0.68;;;;;;;5.50;64.32;103245.59;4960246;29;20062;-86
2023/04/03 10:43:49;;;;;;;1.10;0.70;;;;;;;5.55;64.12;103241.34;4960266;29;20062;-87
2023/04/03 10:46:27;;;;;;;1.02;0.60;;;;;;;5.60;64.63;103240.56;4977115;28;20035;-86
2023/04/03 10:49:22;;;;;;;1.50;0.73;;;;;;;5.65;64.17;103237.19;4976618;28;20101;-86
2023/04/03 10:52:13;;;;;;;3.97;0.70;;;;;;;5.69;64.11;103239.00;4976725;28;20035;-86
2023/04/03 10:54:58;;;;;;;0.65;0.50;;;;;;;5.74;62.92;103237.34;4975592;28;20046;-86
2023/04/03 10:57:25;;;;;;;2.25;0.73;;;;;;;5.78;62.62;103240.88;4977739;28;20337;-86
2023/04/03 10:59:59;;;;;;;0.88;0.60;;;;;;;5.81;62.59;103240.94;4977194;28;20350;-87
2023/04/03 11:02:31;;;;;;;1.13;0.60;;;;;;;5.83;62.99;103244.44;4979471;28;20321;-86
2023/04/03 11:05:04;;;;;;;1.08;0.50;;;;;;;5.86;61.01;103236.72;4976547;28;20057;-86
2023/04/03 11:07:37;;;;;;;0.95;0.80;;;;;;;5.91;60.54;103240.28;4976065;28;20034;-86
2023/04/03 11:10:10;;;;;;;2.35;0.60;;;;;;;5.96;60.62;103250.78;4980920;28;20102;-86
2023/04/03 11:12:38;;;;;;;1.27;0.82;;;;;;;5.98;61.40;103236.06;4973904;28;20127;-87
2023/04/03 11:15:05;;;;;;;0.87;0.77;;;;;;;5.99;59.57;103232.63;4980533;28;20042;-87
2023/04/03 11:17:40;;;;;;;0.60;0.60;;;;;;;6.02;60.66;103235.28;4982667;28;20039;-86
2023/04/03 11:20:27;;;;;;;0.57;0.50;;;;;;;6.06;57.84;103233.63;4982376;28;20257;-86
2023/04/03 11:22:58;;;;;;;1.77;0.82;;;;;;;6.09;58.56;103238.84;4982304;28;20034;-86
2023/04/03 11:25:26;;;;;;;1.13;0.57;;;;;;;6.12;60.02;103231.97;4982655;28;20038;-87
2023/04/03 11:28:12;;;;;;;2.60;0.52;;;;;;;6.13;58.80;103220.72;5001147;28;20042;-87
2023/04/03 11:30:47;;;;;;;0.90;0.60;;;;;;;6.15;58.91;103223.34;5000520;28;20033;-86
2023/04/03 11:33:35;;;;;;;1.48;0.68;;;;;;;6.19;60.31;103219.06;5000728;28;20038;-87
2023/04/03 11:36:09;;;;;;;1.00;0.57;;;;;;;6.21;58.68;103217.38;5001240;28;20413;-87
2023/04/03 11:38:40;;;;;;;4.38;0.70;;;;;;;6.23;58.32;103211.31;5001476;28;20052;-86
2023/04/03 11:41:08;;;;;;;2.72;0.57;;;;;;;6.27;58.17;103204.44;5002084;28;20191;-86
2023/04/03 11:43:40;;;;;;;3.40;0.40;;;;;;;6.29;57.53;103208.84;5001388;28;20065;-86